Time;durP1;ratioP1;P1;durP2;ratioP2;P2;SDS_P1;SDS_P2;PMS_P1;PMS_P2;Temp;Humidity;BMP_temperature;BMP_pressure;BME280_temperature;BME280_humidity;BME280_pressure;Samples;Min_cycle;Max_cycle;Signal;HPM_P1;HPM_P2
2023/02/14 00:00:33;;;;;;;5.37;3.87;;;-1.20;99.90;-0.70;98534.00;;;;5071673;28;20457;-69
2023/02/14 00:03:22;;;;;;;5.00;3.60;;;-1.30;99.90;-0.40;98523.00;;;;5071350;28;20477;-69
2023/02/14 00:06:13;;;;;;;6.53;4.70;;;-1.30;99.90;-0.40;98531.00;;;;5071829;28;20503;-69
2023/02/14 00:09:03;;;;;;;8.33;4.57;;;0.90;99.90;-0.30;98538.00;;;;5070271;28;20801;-70
2023/02/14 00:11:52;;;;;;;8.17;5.00;;;-0.20;99.90;-0.40;98554.00;;;;5071056;28;20449;-69
2023/02/14 00:17:48;;;;;;;5.40;4.10;;;0.40;99.90;-0.50;98550.00;;;;5071759;28;20434;-70
2023/02/14 00:20:37;;;;;;;6.27;3.80;;;-1.30;99.90;-1.10;98546.00;;;;5059592;28;20428;-67
2023/02/14 00:23:25;;;;;;;6.40;4.47;;;-1.40;99.90;-0.80;98554.00;;;;5070455;28;20478;-69
2023/02/14 00:26:20;;;;;;;10.47;3.87;;;0.60;99.90;-0.90;98568.00;;;;5071615;28;20836;-70
2023/02/14 00:29:13;;;;;;;4.07;3.57;;;-1.50;99.90;-0.90;98547.00;;;;5071019;28;20426;-69
2023/02/14 00:32:04;;;;;;;4.87;3.77;;;-1.50;99.90;-1.10;98551.00;;;;5071109;28;20419;-68
2023/02/14 00:34:53;;;;;;;5.30;3.50;;;-1.60;99.90;-0.90;98553.00;;;;5073400;28;20434;-68
2023/02/14 00:37:42;;;;;;;3.90;3.60;;;-1.60;99.90;-1.20;98535.00;;;;5070715;28;20668;-75
2023/02/14 00:40:31;;;;;;;4.63;4.20;;;-1.60;99.90;-0.90;98556.00;;;;5071036;28;20946;-70
2023/02/14 00:43:19;;;;;;;5.77;4.60;;;0.00;99.90;-0.60;98562.00;;;;5071232;28;20462;-67
2023/02/14 00:46:08;;;;;;;11.90;4.07;;;-1.40;99.90;-0.50;98547.00;;;;5071092;28;20472;-67
2023/02/14 00:48:58;;;;;;;10.10;3.13;;;1.50;99.90;-0.50;98564.00;;;;5069844;28;20445;-68
2023/02/14 00:51:47;;;;;;;6.40;4.27;;;1.30;99.90;-1.10;98549.00;;;;5069748;28;20422;-67
2023/02/14 00:54:36;;;;;;;5.87;3.57;;;-1.50;99.90;-1.30;98541.00;;;;5058082;28;20415;-69
2023/02/14 00:57:25;;;;;;;7.17;4.90;;;1.10;99.90;-0.90;98549.00;;;;5068677;28;20438;-68
2023/02/14 01:00:15;;;;;;;5.53;4.03;;;-1.70;99.90;-0.60;98560.00;;;;5067113;28;20415;-68
2023/02/14 01:03:04;;;;;;;4.30;3.73;;;-1.60;99.90;-0.40;98554.00;;;;5065969;28;20446;-68
2023/02/14 01:05:54;;;;;;;6.13;4.37;;;0.10;99.90;-0.20;98558.00;;;;5070384;28;20419;-68
2023/02/14 01:08:43;;;;;;;6.73;4.47;;;-1.40;99.90;-0.40;98554.00;;;;5068337;28;20443;-67
2023/02/14 01:11:32;;;;;;;5.53;4.13;;;1.70;99.90;-0.50;98557.00;;;;5069624;28;20411;-69
2023/02/14 01:14:20;;;;;;;4.07;3.70;;;-1.30;99.90;-0.60;98558.00;;;;5067940;28;20563;-69
2023/02/14 01:17:09;;;;;;;9.97;4.87;;;-1.40;99.90;-0.80;98541.00;;;;5070326;28;20438;-68
2023/02/14 01:19:58;;;;;;;5.77;3.63;;;0.90;99.90;-0.60;98542.00;;;;5069681;28;20549;-69
2023/02/14 01:22:48;;;;;;;9.27;5.63;;;1.40;99.90;-0.60;98551.00;;;;5069494;28;20466;-68
2023/02/14 01:25:38;;;;;;;5.70;4.70;;;-1.50;99.90;-0.60;98552.00;;;;5070180;28;20410;-68
2023/02/14 01:28:27;;;;;;;5.30;4.20;;;0.50;99.90;-0.70;98534.00;;;;5069672;28;21000;-68
2023/02/14 01:31:19;;;;;;;7.37;4.13;;;0.70;99.90;-1.00;98521.00;;;;5069064;28;20434;-69
2023/02/14 01:34:08;;;;;;;5.37;4.47;;;-1.60;99.90;-1.10;98536.00;;;;5071599;28;20827;-69
2023/02/14 01:36:57;;;;;;;4.73;4.17;;;-1.60;99.90;-0.90;98539.00;;;;5056971;28;20438;-69
2023/02/14 01:39:47;;;;;;;6.83;4.17;;;-1.60;99.90;-0.80;98520.00;;;;5069348;28;20411;-68
2023/02/14 01:42:37;;;;;;;4.93;4.10;;;-1.70;99.90;-0.80;98519.00;;;;5067679;28;20430;-69
2023/02/14 01:45:27;;;;;;;5.83;3.30;;;-1.70;99.90;-1.00;98522.00;;;;5070403;28;20960;-69
2023/02/14 01:48:18;;;;;;;5.50;5.00;;;0.70;99.90;-1.20;98525.00;;;;5069302;28;20422;-68
2023/02/14 01:51:07;;;;;;;7.07;4.23;;;-1.70;99.90;-1.10;98520.00;;;;5070729;28;20909;-69
2023/02/14 01:53:57;;;;;;;7.47;4.70;;;1.00;99.90;-1.20;98511.00;;;;5068480;28;20865;-69
2023/02/14 01:56:53;;;;;;;6.77;4.00;;;-1.80;99.90;-1.20;98514.00;;;;5069171;28;20937;-69
2023/02/14 01:59:51;;;;;;;2.67;2.47;;;-1.90;99.90;-1.90;98513.00;;;;5069010;28;20419;-73
2023/02/14 02:02:39;;;;;;;4.77;3.37;;;-2.00;99.90;-1.80;98502.00;;;;5067932;28;20989;-69
2023/02/14 02:05:28;;;;;;;9.30;3.93;;;-1.60;99.90;-1.40;98514.00;;;;5063858;28;20473;-69
2023/02/14 02:08:17;;;;;;;4.93;3.17;;;-1.70;99.90;-1.60;98495.00;;;;5068434;28;20546;-69
2023/02/14 02:11:06;;;;;;;4.63;2.63;;;-2.20;99.90;-1.60;98497.00;;;;5057979;28;20508;-68
2023/02/14 02:13:56;;;;;;;3.37;3.17;;;-2.20;99.90;-1.60;98496.00;;;;5069109;28;20454;-70
2023/02/14 02:17:08;;;;;;;5.47;4.80;;;-2.10;99.90;-1.10;98518.00;;;;5069152;28;20936;-68
2023/02/14 02:20:45;;;;;;;5.23;4.63;;;-1.50;99.90;-0.90;98509.00;;;;5065404;28;20426;-69
2023/02/14 02:24:14;;;;;;;5.30;3.87;;;-2.00;99.90;-1.30;98512.00;;;;5068940;28;20446;-68
2023/02/14 02:27:37;;;;;;;5.03;4.20;;;-2.00;99.90;-1.40;98519.00;;;;5069491;28;20418;-67
2023/02/14 02:31:12;;;;;;;2.43;2.33;;;-2.00;99.90;-1.90;98512.00;;;;5069000;28;20429;-69
2023/02/14 02:35:04;;;;;;;3.73;3.03;;;-2.20;99.90;-1.70;98517.00;;;;5059839;28;20450;-69
2023/02/14 02:38:07;;;;;;;3.47;3.27;;;-2.30;99.90;-1.90;98518.00;;;;5049069;28;20442;-70
2023/02/14 02:41:04;;;;;;;3.87;3.47;;;-2.40;99.90;-1.90;98515.00;;;;5069194;28;20433;-69
2023/02/14 02:44:02;;;;;;;4.40;4.00;;;-2.40;99.90;-1.50;98517.00;;;;5068414;28;20446;-68
2023/02/14 02:47:01;;;;;;;6.23;4.90;;;-2.40;99.90;-1.40;98529.00;;;;5068446;28;20427;-69
2023/02/14 02:53:17;;;;;;;5.10;3.80;;;-0.40;99.90;-1.50;98517.00;;;;5054985;28;20453;-70
2023/02/14 02:59:22;;;;;;;5.80;4.27;;;-2.10;99.90;-1.20;98507.00;;;;5068152;28;20437;-69
2023/02/14 03:02:16;;;;;;;6.67;4.80;;;-2.10;99.90;-1.60;98518.00;;;;5066673;28;20447;-70
2023/02/14 03:05:06;;;;;;;7.50;4.80;;;-2.20;99.90;-1.70;98519.00;;;;5063746;28;21186;-70
2023/02/14 03:07:55;;;;;;;4.87;4.30;;;-2.20;99.90;-1.60;98519.00;;;;5067463;28;20441;-69
2023/02/14 03:10:45;;;;;;;5.10;4.60;;;-2.30;99.90;-1.50;98508.00;;;;5069040;28;20415;-71
2023/02/14 03:14:09;;;;;;;7.57;4.40;;;-2.30;99.90;-1.40;98517.00;;;;5067195;28;20512;-71
2023/02/14 03:17:07;;;;;;;8.37;6.13;;;-1.50;99.90;-1.30;98523.00;;;;5048376;28;20426;-71
2023/02/14 03:20:14;;;;;;;3.63;3.40;;;-1.90;99.90;-1.50;98516.00;;;;5067464;28;20456;-71
2023/02/14 03:23:13;;;;;;;5.17;4.10;;;-1.70;99.90;-1.60;98518.00;;;;5068109;28;20462;-71
2023/02/14 03:26:12;;;;;;;7.53;4.40;;;-3.80;99.90;-1.50;98512.00;;;;5064942;28;21021;-70
2023/02/14 03:29:10;;;;;;;3.50;2.90;;;0.50;99.90;-1.80;98515.00;;;;5062861;28;20422;-71
2023/02/14 03:32:11;;;;;;;4.80;4.40;;;-2.00;99.90;-2.00;98504.00;;;;5066943;28;20443;-71
2023/02/14 03:35:08;;;;;;;4.83;3.47;;;-1.90;99.90;-2.00;98512.00;;;;5069747;28;20431;-72
2023/02/14 03:38:08;;;;;;;6.13;5.40;;;-2.40;99.90;-1.80;98513.00;;;;5068454;28;20816;-72
2023/02/14 03:41:02;;;;;;;4.27;3.50;;;-2.40;99.90;-1.60;98524.00;;;;5068727;28;20799;-72
2023/02/14 03:43:55;;;;;;;6.17;3.60;;;-2.40;99.90;-1.70;98525.00;;;;5068527;28;20450;-72
2023/02/14 03:46:50;;;;;;;5.63;4.10;;;-2.40;99.90;-1.80;98508.00;;;;5068523;28;20942;-72
2023/02/14 03:49:43;;;;;;;5.87;4.37;;;-2.50;99.90;-1.90;98510.00;;;;5067846;28;20438;-71
2023/02/14 03:52:35;;;;;;;15.33;4.03;;;-2.50;99.90;-1.70;98511.00;;;;5068491;28;20495;-71
2023/02/14 03:55:33;;;;;;;6.63;3.77;;;-2.50;99.90;-1.80;98515.00;;;;5067870;28;20434;-71
2023/02/14 03:58:27;;;;;;;6.17;4.43;;;-2.50;99.90;-2.10;98502.00;;;;5063730;28;20435;-71
2023/02/14 04:01:21;;;;;;;7.37;4.53;;;-2.60;99.90;-2.30;98498.00;;;;5068678;28;20929;-70
2023/02/14 04:04:12;;;;;;;4.10;3.80;;;-2.70;99.90;-2.20;98494.00;;;;5072361;28;20994;-71
2023/02/14 04:07:11;;;;;;;7.00;4.17;;;-2.80;99.90;-2.40;98496.00;;;;5069593;28;20984;-72
2023/02/14 04:09:59;;;;;;;6.07;3.47;;;-2.90;99.90;-2.20;98502.00;;;;5065720;28;20426;-70
2023/02/14 04:12:50;;;;;;;4.13;2.83;;;-0.40;99.90;-2.00;98493.00;;;;5064947;28;20462;-70
2023/02/14 04:15:39;;;;;;;5.80;4.47;;;-2.90;99.90;-1.90;98488.00;;;;5059912;28;20418;-70
2023/02/14 04:21:34;;;;;;;7.57;3.70;;;-2.80;99.90;-2.10;98471.00;;;;5068474;28;20423;-71
2023/02/14 04:24:22;;;;;;;5.40;4.57;;;-2.80;99.90;-1.90;98471.00;;;;5071987;28;20474;-71
2023/02/14 04:27:11;;;;;;;5.27;4.67;;;-2.40;99.90;-1.90;98470.00;;;;5071741;28;20438;-71
2023/02/14 04:30:01;;;;;;;5.90;5.30;;;-2.80;99.90;-2.10;98470.00;;;;5071143;28;20437;-70
2023/02/14 04:32:50;;;;;;;18.77;4.27;;;-2.80;99.90;-2.30;98458.00;;;;5071518;28;20464;-71
2023/02/14 04:35:39;;;;;;;6.23;4.77;;;-2.80;99.90;-2.20;98467.00;;;;5075272;28;20435;-71
2023/02/14 04:38:28;;;;;;;5.80;5.23;;;-2.90;99.90;-2.20;98471.00;;;;5070785;28;20430;-71
2023/02/14 04:41:17;;;;;;;7.87;5.87;;;-2.90;99.90;-2.10;98461.00;;;;5070378;28;20434;-71
2023/02/14 04:44:06;;;;;;;6.60;4.57;;;-2.50;99.90;-2.20;98461.00;;;;5071129;28;20822;-71
2023/02/14 04:46:56;;;;;;;8.83;5.20;;;-2.90;99.90;-2.30;98450.00;;;;5065586;28;20554;-71
2023/02/14 04:49:45;;;;;;;5.67;4.63;;;-2.90;99.90;-2.50;98448.00;;;;5069845;28;20414;-71
2023/02/14 04:52:33;;;;;;;5.10;3.63;;;-3.00;99.90;-2.60;98444.00;;;;5071444;28;20817;-70
2023/02/14 04:55:22;;;;;;;3.10;2.80;;;-3.00;99.90;-2.50;98444.00;;;;5071082;28;20433;-71
2023/02/14 04:58:11;;;;;;;6.50;4.47;;;-3.00;99.90;-2.30;98443.00;;;;5069043;28;20446;-71
2023/02/14 05:01:00;;;;;;;4.90;4.10;;;-3.00;99.90;-2.10;98452.00;;;;5070321;28;20438;-71
2023/02/14 05:03:50;;;;;;;6.57;4.00;;;-3.00;99.90;-2.10;98455.00;;;;5069819;28;20841;-71
2023/02/14 05:06:39;;;;;;;7.57;5.17;;;-3.00;99.90;-2.20;98457.00;;;;5070895;28;20471;-71
2023/02/14 05:09:28;;;;;;;6.23;4.10;;;-2.90;99.90;-2.30;98438.00;;;;5057372;28;20447;-71
2023/02/14 05:12:17;;;;;;;9.90;4.30;;;-3.10;99.90;-2.30;98442.00;;;;5072419;28;20437;-72
2023/02/14 05:15:06;;;;;;;6.40;4.73;;;-3.00;99.90;-2.30;98441.00;;;;5071847;28;20439;-71
2023/02/14 05:17:55;;;;;;;14.73;5.27;;;-3.00;99.90;-2.20;98445.00;;;;5064093;28;20437;-71
2023/02/14 05:20:45;;;;;;;6.30;5.37;;;-3.00;99.90;-2.50;98440.00;;;;5059419;28;20433;-71
2023/02/14 05:23:34;;;;;;;5.47;4.60;;;-2.60;99.90;-2.60;98440.00;;;;5068987;28;20829;-71
2023/02/14 05:26:23;;;;;;;4.57;3.43;;;-2.50;99.90;-2.90;98435.00;;;;5067935;28;20470;-72
2023/02/14 05:29:11;;;;;;;5.60;4.33;;;-3.20;99.90;-3.00;98424.00;;;;5066937;28;20414;-70
2023/02/14 05:32:01;;;;;;;7.33;4.57;;;;;-2.80;98424.00;;;;5058663;28;20466;-70
2023/02/14 05:34:49;;;;;;;5.13;4.27;;;-3.40;99.90;-2.60;98436.00;;;;5072341;28;20425;-74
2023/02/14 05:37:40;;;;;;;7.10;3.87;;;-3.40;99.90;-2.60;98425.00;;;;5068494;28;20449;-74
2023/02/14 05:40:28;;;;;;;6.97;4.20;;;-3.30;99.90;-2.60;98427.00;;;;5069308;28;20423;-72
2023/02/14 05:43:17;;;;;;;5.60;4.80;;;-3.20;99.90;-2.30;98428.00;;;;5066704;28;20438;-72
2023/02/14 05:46:06;;;;;;;7.23;6.00;;;-3.20;99.90;-2.20;98442.00;;;;5066516;28;20472;-71
2023/02/14 05:48:55;;;;;;;5.03;3.80;;;-3.10;99.90;-2.20;98432.00;;;;5064483;28;20480;-72
2023/02/14 05:51:44;;;;;;;5.33;4.53;;;-3.10;99.90;-2.10;98436.00;;;;5062300;28;20788;-72
2023/02/14 05:54:34;;;;;;;10.03;4.40;;;-2.90;99.90;-2.20;98432.00;;;;5055407;28;20989;-71
2023/02/14 05:57:23;;;;;;;5.97;4.93;;;-3.00;99.90;-2.10;98431.00;;;;5068649;28;20423;-72
2023/02/14 06:00:14;;;;;;;9.80;5.07;;;-1.50;99.90;-2.00;98426.00;;;;5069981;28;20460;-72
2023/02/14 06:03:03;;;;;;;6.63;5.83;;;-3.00;99.90;-2.00;98428.00;;;;5065223;28;20493;-71
2023/02/14 06:05:52;;;;;;;8.33;5.87;;;-2.90;99.90;-2.20;98431.00;;;;5067809;28;20458;-71
2023/02/14 06:08:41;;;;;;;5.73;5.03;;;;;-2.30;98422.00;;;;5065217;28;20453;-71
2023/02/14 06:11:31;;;;;;;6.00;4.57;;;-3.00;99.90;-2.50;98408.00;;;;5066037;28;20528;-71
2023/02/14 06:14:20;;;;;;;8.63;5.77;;;-3.00;99.90;-2.80;98413.00;;;;5064369;28;20458;-72
2023/02/14 06:17:09;;;;;;;3.40;3.10;;;-3.10;99.90;-3.20;98411.00;;;;5069753;28;20423;-76
2023/02/14 06:19:58;;;;;;;5.13;4.63;;;-3.20;99.90;-3.10;98412.00;;;;5064789;28;20806;-72
2023/02/14 06:22:46;;;;;;;7.40;4.83;;;-3.40;99.90;-2.90;98428.00;;;;5066207;28;20473;-72
2023/02/14 06:25:35;;;;;;;5.93;5.20;;;-2.90;99.90;-2.60;98415.00;;;;5065264;28;20430;-72
2023/02/14 06:28:25;;;;;;;6.73;5.17;;;-3.40;99.90;-2.40;98421.00;;;;5071137;28;21149;-72
2023/02/14 06:31:17;;;;;;;8.73;6.57;;;-3.40;99.90;-2.40;98424.00;;;;5071514;28;20440;-71
2023/02/14 06:34:06;;;;;;;5.50;4.80;;;-3.30;99.90;-2.10;98428.00;;;;5068369;28;20454;-71
2023/02/14 06:36:55;;;;;;;4.80;4.03;;;-3.10;99.90;-2.20;98420.00;;;;5071019;28;20430;-71
2023/02/14 06:39:44;;;;;;;4.63;3.50;;;-3.10;99.90;-2.60;98420.00;;;;5073123;28;20457;-71
2023/02/14 06:42:33;;;;;;;12.37;6.67;;;-2.70;99.90;-2.50;98402.00;;;;5067466;28;20434;-71
2023/02/14 06:45:23;;;;;;;13.37;8.37;;;-2.60;99.90;-2.40;98417.00;;;;5066958;28;20429;-71
2023/02/14 06:48:11;;;;;;;10.43;7.13;;;-5.20;99.90;-2.20;98402.00;;;;5067861;28;20419;-71
2023/02/14 06:51:00;;;;;;;12.33;6.70;;;-2.90;99.90;-2.10;98420.00;;;;5063906;28;20431;-71
2023/02/14 06:53:49;;;;;;;8.93;5.80;;;-2.90;99.90;-2.00;98410.00;;;;5060160;28;20445;-71
2023/02/14 06:56:38;;;;;;;13.10;7.97;;;-2.80;99.90;-1.90;98404.00;;;;5064670;28;20434;-71
2023/02/14 06:59:27;;;;;;;9.63;6.23;;;-3.00;99.90;-1.90;98405.00;;;;5067637;28;20479;-72
2023/02/14 07:02:17;;;;;;;13.33;8.33;;;-2.70;99.90;-1.70;98412.00;;;;5066943;28;20434;-71
2023/02/14 07:05:06;;;;;;;14.00;6.70;;;-2.10;99.90;-1.90;98400.00;;;;5062373;28;20452;-71
2023/02/14 07:07:55;;;;;;;5.40;4.70;;;-2.60;99.90;-2.20;98407.00;;;;5066170;28;21074;-72
2023/02/14 07:10:44;;;;;;;9.70;6.10;;;-0.30;99.90;-2.20;98398.00;;;;5069349;28;20956;-72
2023/02/14 07:13:33;;;;;;;6.63;5.20;;;-2.70;99.90;-2.30;98387.00;;;;5061840;28;20473;-72
2023/02/14 07:16:22;;;;;;;21.50;6.70;;;-2.80;99.90;-2.40;98399.00;;;;5067070;28;20411;-71
2023/02/14 07:19:12;;;;;;;2.20;2.00;;;-2.90;99.90;-2.50;98389.00;;;;5057566;28;20434;-74
2023/02/14 07:22:01;;;;;;;6.83;5.73;;;;;-2.30;98390.00;;;;5067579;28;20422;-69
2023/02/14 07:24:50;;;;;;;6.97;6.27;;;-2.90;99.90;-2.10;98381.00;;;;5068096;28;20943;-68
2023/02/14 07:27:39;;;;;;;5.83;5.20;;;-2.80;99.90;-1.80;98391.00;;;;5068396;28;20462;-72
2023/02/14 07:30:28;;;;;;;7.03;5.10;;;-2.40;99.90;-1.80;98392.00;;;;5067146;28;20472;-71
2023/02/14 07:33:17;;;;;;;5.17;4.23;;;-2.50;99.90;-2.00;98383.00;;;;5066358;28;20446;-69
2023/02/14 07:36:08;;;;;;;7.17;5.50;;;-2.50;99.90;-1.90;98379.00;;;;5072103;28;20422;-69
2023/02/14 07:38:57;;;;;;;5.00;4.60;;;-2.40;99.90;-1.60;98380.00;;;;5071374;28;20441;-72
2023/02/14 07:41:46;;;;;;;9.33;6.97;;;-1.90;99.90;-1.50;98389.00;;;;5070083;28;20434;-70
2023/02/14 07:44:37;;;;;;;8.50;4.37;;;-2.20;99.90;-1.40;98378.00;;;;5067196;28;20516;-74
2023/02/14 07:47:26;;;;;;;11.00;6.53;;;-1.00;99.90;-1.30;98374.00;;;;5070895;28;20462;-71
2023/02/14 07:50:15;;;;;;;6.77;5.07;;;-1.70;99.90;-0.90;98390.00;;;;5067545;28;20442;-71
2023/02/14 07:53:07;;;;;;;9.13;7.33;;;-1.90;99.90;-0.90;98390.00;;;;5071017;28;20461;-69
2023/02/14 07:55:56;;;;;;;12.40;7.40;;;-1.30;99.90;-0.60;98379.00;;;;5069928;28;20427;-70
2023/02/14 07:58:45;;;;;;;10.00;6.40;;;-1.60;99.90;-0.50;98383.00;;;;5069937;28;20963;-72
2023/02/14 08:01:34;;;;;;;11.83;8.07;;;0.90;99.90;-0.10;98385.00;;;;5071494;28;20439;-71
2023/02/14 08:04:24;;;;;;;13.43;8.00;;;0.20;99.90;-0.20;98372.00;;;;5072339;28;20976;-71
2023/02/14 08:07:13;;;;;;;11.73;7.60;;;-1.20;99.90;-0.20;98375.00;;;;5071646;28;20469;-69
2023/02/14 08:10:04;;;;;;;10.73;8.37;;;1.00;99.90;0.10;98386.00;;;;5068536;28;20441;-70
2023/02/14 08:12:58;;;;;;;8.63;6.53;;;-0.90;99.90;-0.60;98374.00;;;;5069265;28;20472;-73
2023/02/14 08:16:06;;;;;;;9.83;6.90;;;-0.90;99.90;-0.60;98365.00;;;;5064378;28;20808;-68
2023/02/14 08:18:55;;;;;;;10.90;7.43;;;1.00;99.90;0.10;98385.00;;;;5065873;28;20430;-68
2023/02/14 08:21:44;;;;;;;14.13;8.50;;;1.00;99.90;0.30;98383.00;;;;5068533;28;20450;-69
2023/02/14 08:24:33;;;;;;;11.87;7.17;;;-0.80;99.90;0.20;98377.00;;;;5070979;28;21021;-73
2023/02/14 08:27:23;;;;;;;8.60;6.23;;;1.40;99.90;0.50;98368.00;;;;5070797;28;20458;-71
2023/02/14 08:30:13;;;;;;;15.57;6.47;;;-0.50;99.90;0.50;98366.00;;;;5068218;28;20464;-68
2023/02/14 08:33:01;;;;;;;11.80;7.73;;;-0.40;99.90;1.00;98363.00;;;;5070012;28;20462;-69
2023/02/14 08:35:51;;;;;;;56.17;33.80;;;2.20;99.90;1.00;98374.00;;;;5071268;28;20468;-73
2023/02/14 08:38:42;;;;;;;23.80;14.73;;;0.00;99.90;1.20;98379.00;;;;5070237;28;21020;-69
2023/02/14 08:41:32;;;;;;;17.13;13.33;;;0.10;99.90;1.60;98388.00;;;;5070846;28;20453;-69
2023/02/14 08:44:23;;;;;;;20.60;8.80;;;2.20;99.90;2.10;98391.00;;;;5069887;28;20462;-72
2023/02/14 08:47:11;;;;;;;14.63;9.33;;;0.50;99.90;2.30;98389.00;;;;5065578;28;20454;-72
2023/02/14 08:50:00;;;;;;;13.57;9.83;;;0.80;99.90;2.70;98398.00;;;;5065989;28;20426;-72
2023/02/14 08:52:49;;;;;;;13.63;9.47;;;1.60;99.90;3.00;98399.00;;;;5069135;28;20446;-72
2023/02/14 08:55:39;;;;;;;12.07;8.47;;;1.30;99.90;2.90;98411.00;;;;5070088;28;20423;-72
2023/02/14 08:58:28;;;;;;;13.07;8.00;;;1.50;99.90;3.00;98400.00;;;;5061518;28;20572;-72
2023/02/14 09:01:19;;;;;;;12.00;8.07;;;1.70;99.90;3.50;98411.00;;;;5068103;28;20438;-72
2023/02/14 09:04:08;;;;;;;9.00;6.67;;;2.50;99.90;3.30;98412.00;;;;5071322;28;20614;-72
2023/02/14 09:06:57;;;;;;;9.83;7.83;;;2.10;99.90;3.50;98414.00;;;;5074937;28;20786;-72
2023/02/14 09:09:46;;;;;;;9.57;6.27;;;;;3.70;98404.00;;;;5072458;28;20445;-70
2023/02/14 09:12:35;;;;;;;11.43;7.90;;;2.40;99.90;4.00;98410.00;;;;5069546;28;20461;-70
2023/02/14 09:15:24;;;;;;;14.80;7.10;;;2.60;99.90;3.40;98407.00;;;;5070414;28;20980;-68
2023/02/14 09:18:15;;;;;;;16.53;7.93;;;4.90;99.90;3.90;98407.00;;;;5075489;28;20446;-70
2023/02/14 09:21:07;;;;;;;14.43;6.73;;;2.80;99.90;3.80;98411.00;;;;5066612;28;20930;-70
2023/02/14 09:23:57;;;;;;;15.83;7.57;;;2.90;99.90;3.90;98409.00;;;;5062191;28;20516;-69
2023/02/14 09:26:46;;;;;;;13.20;6.83;;;2.90;99.90;4.00;98413.00;;;;5067672;28;20853;-76
2023/02/14 09:29:35;;;;;;;12.00;8.10;;;3.00;99.90;4.30;98420.00;;;;5069090;28;20945;-68
2023/02/14 09:32:25;;;;;;;7.67;6.37;;;2.90;99.90;4.40;98416.00;;;;5068078;28;20458;-70
2023/02/14 09:35:15;;;;;;;12.50;6.43;;;4.90;99.90;4.70;98421.00;;;;5070605;28;20438;-69
2023/02/14 09:38:19;;;;;;;11.60;8.13;;;3.40;99.90;5.00;98413.00;;;;5068906;28;20437;-69
2023/02/14 09:41:12;;;;;;;10.27;6.97;;;3.60;99.90;5.20;98418.00;;;;5069002;28;20441;-68
2023/02/14 09:44:05;;;;;;;12.40;8.50;;;3.80;99.90;5.70;98417.00;;;;5069152;28;21045;-67
2023/02/14 09:47:00;;;;;;;17.03;6.63;;;4.00;99.90;6.10;98420.00;;;;5068785;28;20797;-67
2023/02/14 09:49:50;;;;;;;10.60;6.93;;;4.30;99.90;6.20;98417.00;;;;5069351;28;20956;-68
2023/02/14 09:52:41;;;;;;;15.17;7.97;;;4.50;99.90;6.60;98417.00;;;;5068641;28;20227;-67
2023/02/14 09:55:39;;;;;;;10.90;6.30;;;4.80;99.90;6.80;98422.00;;;;5068869;28;20208;-67
2023/02/14 09:58:34;;;;;;;11.90;6.17;;;5.10;99.90;7.50;98417.00;;;;5067431;28;20563;-67
2023/02/14 10:01:26;;;;;;;13.50;6.37;;;5.40;99.90;7.80;98419.00;;;;5069218;28;20207;-66
2023/02/14 10:04:26;;;;;;;10.67;6.10;;;5.70;99.90;8.10;98416.00;;;;5068086;28;20223;-69
2023/02/14 10:07:24;;;;;;;18.03;8.67;;;6.30;99.90;8.60;98427.00;;;;5066102;28;20656;-70
2023/02/14 10:10:20;;;;;;;15.57;7.23;;;6.30;99.90;8.00;98420.00;;;;5056230;28;20222;-71
2023/02/14 10:13:22;;;;;;;11.47;7.63;;;6.50;99.90;8.90;98419.00;;;;5074070;28;20230;-69
2023/02/14 10:16:20;;;;;;;10.23;6.47;;;6.80;99.90;9.20;98424.00;;;;5063736;28;20204;-69
2023/02/14 10:19:20;;;;;;;9.17;6.80;;;7.10;99.90;9.60;98420.00;;;;5068404;28;20207;-69
2023/02/14 10:22:14;;;;;;;14.33;8.00;;;7.80;99.90;9.90;98424.00;;;;5059382;28;20215;-68
2023/02/14 10:25:13;;;;;;;11.53;9.13;;;7.70;99.90;10.10;98410.00;;;;5066820;28;20196;-68
2023/02/14 10:28:03;;;;;;;10.20;6.87;;;7.90;99.90;10.40;98414.00;;;;5066933;28;20777;-69
2023/02/14 10:31:11;;;;;;;9.40;7.23;;;8.20;99.90;10.60;98410.00;;;;5062114;28;20204;-67
2023/02/14 10:34:09;;;;;;;12.07;6.37;;;8.40;99.90;10.80;98417.00;;;;5065637;28;20227;-68
2023/02/14 10:37:19;;;;;;;10.33;7.27;;;8.60;99.90;11.10;98409.00;;;;5063095;28;20204;-68
2023/02/14 10:40:28;;;;;;;19.47;7.83;;;8.80;99.90;11.30;98413.00;;;;5057626;28;20577;-67
2023/02/14 10:43:30;;;;;;;8.40;6.47;;;9.10;99.90;11.70;98409.00;;;;5055740;28;20275;-68
2023/02/14 10:46:32;;;;;;;11.33;7.77;;;9.30;99.90;12.20;98404.00;;;;5068435;28;20626;-68
2023/02/14 10:49:37;;;;;;;10.47;6.97;;;10.00;99.90;12.70;98400.00;;;;5066512;28;20214;-68
2023/02/14 10:52:33;;;;;;;12.03;7.17;;;10.90;99.90;13.20;98392.00;;;;5066621;28;20247;-67
2023/02/14 10:55:31;;;;;;;8.50;6.53;;;11.60;99.90;13.80;98394.00;;;;5068838;28;20200;-67
2023/02/14 10:58:23;;;;;;;12.97;7.80;;;12.10;99.90;14.30;98392.00;;;;5066615;28;20671;-67
2023/02/14 11:01:14;;;;;;;11.13;7.73;;;12.60;99.90;14.60;98386.00;;;;5056999;28;20196;-67
2023/02/14 11:04:07;;;;;;;13.73;7.67;;;13.00;98.60;15.20;98390.00;;;;5068548;28;20231;-66
2023/02/14 11:06:56;;;;;;;15.20;7.17;;;13.40;97.20;14.70;98386.00;;;;5068982;28;20227;-67
2023/02/14 11:09:45;;;;;;;10.93;6.60;;;13.50;93.40;15.10;98384.00;;;;5072379;28;20234;-67
2023/02/14 11:12:37;;;;;;;10.13;6.23;;;13.60;93.40;15.40;98384.00;;;;5070466;28;20235;-67
2023/02/14 11:15:40;;;;;;;8.90;7.03;;;13.80;92.60;15.60;98372.00;;;;5072395;28;20261;-67
2023/02/14 11:18:31;;;;;;;9.97;7.17;;;14.10;91.20;16.20;98381.00;;;;5072921;28;20207;-67
2023/02/14 11:21:23;;;;;;;8.63;6.93;;;14.30;91.30;16.50;98374.00;;;;5069219;28;20215;-67
2023/02/14 11:24:27;;;;;;;12.00;6.87;;;14.60;90.80;15.90;98373.00;;;;5069568;28;20594;-66
2023/02/14 11:27:19;;;;;;;7.50;6.03;;;14.70;87.40;17.00;98374.00;;;;5064939;28;20208;-67
2023/02/14 11:30:20;;;;;;;10.23;7.33;;;14.90;89.10;16.80;98376.00;;;;5069229;28;20575;-68
2023/02/14 11:33:22;;;;;;;13.73;8.50;;;15.30;85.70;17.00;98370.00;;;;5070428;28;20695;-67
2023/02/14 11:36:15;;;;;;;8.97;7.80;;;15.50;84.30;17.00;98367.00;;;;5072408;28;20199;-67
2023/02/14 11:39:19;;;;;;;13.33;8.03;;;15.70;81.10;17.30;98369.00;;;;5071014;28;20199;-67
2023/02/14 11:42:13;;;;;;;8.83;7.27;;;15.70;80.70;17.30;98371.00;;;;5063557;28;20253;-68
2023/02/14 11:45:03;;;;;;;13.07;8.37;;;15.80;80.10;16.50;98356.00;;;;5060182;28;20204;-67
2023/02/14 11:48:20;;;;;;;10.93;8.43;;;15.60;78.20;16.90;98360.00;;;;5070023;28;20207;-66
2023/02/14 11:51:29;;;;;;;10.07;7.47;;;15.50;78.60;17.70;98353.00;;;;5068850;28;20204;-66
2023/02/14 11:54:30;;;;;;;11.70;7.57;;;15.60;79.30;18.00;98353.00;;;;5069184;28;20742;-66
2023/02/14 11:57:26;;;;;;;10.40;8.33;;;15.80;78.10;17.80;98352.00;;;;5071622;28;20207;-66
2023/02/14 12:00:19;;;;;;;11.20;6.93;;;16.10;75.20;17.60;98360.00;;;;5071381;28;20243;-67
2023/02/14 12:03:15;;;;;;;10.20;7.40;;;16.10;74.50;17.80;98350.00;;;;5070870;28;20223;-67
2023/02/14 12:06:06;;;;;;;13.53;7.77;;;16.10;74.80;17.90;98357.00;;;;5072268;28;20199;-68
2023/02/14 12:09:16;;;;;;;9.80;7.53;;;16.30;73.80;18.30;98358.00;;;;5070386;28;20227;-67
2023/02/14 12:12:19;;;;;;;9.70;7.27;;;16.50;73.80;18.40;98342.00;;;;5067256;28;20707;-67
2023/02/14 12:15:24;;;;;;;12.00;7.10;;;16.50;71.50;18.00;98334.00;;;;5068240;28;20234;-68
2023/02/14 12:18:51;;;;;;;10.97;8.20;;;16.50;69.70;17.40;98335.00;;;;5067760;28;20204;-68
2023/02/14 12:21:50;;;;;;;9.13;7.53;;;16.50;70.10;18.40;98339.00;;;;5068189;28;20204;-68
2023/02/14 12:24:49;;;;;;;10.80;8.37;;;16.50;70.90;17.40;98331.00;;;;5068387;28;20224;-66
2023/02/14 12:27:47;;;;;;;11.83;7.30;;;16.50;70.20;17.50;98331.00;;;;5070619;28;20212;-68
2023/02/14 12:30:36;;;;;;;11.73;8.63;;;16.60;71.00;15.70;98318.00;;;;5069260;28;20216;-69
2023/02/14 12:33:25;;;;;;;12.37;8.63;;;16.20;68.40;16.50;98312.00;;;;5067683;28;20231;-67
2023/02/14 12:36:31;;;;;;;9.33;7.00;;;15.70;70.10;16.90;98327.00;;;;5068128;28;20219;-69
2023/02/14 12:39:35;;;;;;;10.57;7.70;;;15.70;70.50;15.10;98300.00;;;;5066085;28;20208;-75
2023/02/14 12:42:57;;;;;;;9.30;7.40;;;15.20;70.90;15.70;98300.00;;;;5069408;28;20216;-72
2023/02/14 12:46:03;;;;;;;13.63;7.73;;;14.70;71.90;14.70;98294.00;;;;5064413;28;20200;-67
2023/02/14 12:49:11;;;;;;;10.30;8.07;;;14.40;72.20;15.50;98286.00;;;;5070339;28;20223;-67
2023/02/14 12:52:18;;;;;;;8.83;7.27;;;14.70;72.90;15.90;98298.00;;;;5060877;28;20203;-72
2023/02/14 12:55:38;;;;;;;11.17;8.17;;;15.20;71.10;17.10;98289.00;;;;5066847;28;20211;-72
2023/02/14 12:58:44;;;;;;;10.93;7.97;;;15.20;72.00;16.60;98288.00;;;;5068513;28;20215;-65
2023/02/14 13:02:05;;;;;;;9.77;6.27;;;15.50;69.80;16.00;98291.00;;;;5065629;28;20192;-67
2023/02/14 13:05:06;;;;;;;10.10;7.37;;;15.60;70.40;15.90;98274.00;;;;5070173;28;20207;-69